sensor_id;sensor_type;location;lat;lon;timestamp;temperature;humidity
29777;DHT22;16677;52.224;7.484;2022-10-16T00:01:30;12.00;99.90
29777;DHT22;16677;52.224;7.484;2022-10-16T00:03:58;12.00;99.90
29777;DHT22;16677;52.224;7.484;2022-10-16T00:06:27;11.90;99.90
29777;DHT22;16677;52.224;7.484;2022-10-16T00:08:54;11.90;99.90
29777;DHT22;16677;52.224;7.484;2022-10-16T00:11:24;11.80;99.90
29777;DHT22;16677;52.224;7.484;2022-10-16T00:13:55;11.70;99.90
29777;DHT22;16677;52.224;7.484;2022-10-16T00:16:23;11.70;99.90
29777;DHT22;16677;52.224;7.484;2022-10-16T00:18:56;11.60;99.90
29777;DHT22;16677;52.224;7.484;2022-10-16T00:21:29;11.60;99.90
29777;DHT22;16677;52.224;7.484;2022-10-16T00:26:39;11.50;99.90
29777;DHT22;16677;52.224;7.484;2022-10-16T00:29:07;11.50;99.90
29777;DHT22;16677;52.224;7.484;2022-10-16T00:31:34;11.40;99.90
29777;DHT22;16677;52.224;7.484;2022-10-16T00:34:01;11.40;99.90
29777;DHT22;16677;52.224;7.484;2022-10-16T00:36:28;11.40;99.90
29777;DHT22;16677;52.224;7.484;2022-10-16T00:38:57;11.30;99.90
29777;DHT22;16677;52.224;7.484;2022-10-16T00:41:26;11.30;99.90
29777;DHT22;16677;52.224;7.484;2022-10-16T00:44:03;11.30;99.90
29777;DHT22;16677;52.224;7.484;2022-10-16T00:46:41;11.20;99.90
29777;DHT22;16677;52.224;7.484;2022-10-16T00:49:11;11.20;99.90
29777;DHT22;16677;52.224;7.484;2022-10-16T00:51:41;11.20;99.90
29777;DHT22;16677;52.224;7.484;2022-10-16T00:54:31;11.20;99.90
29777;DHT22;16677;52.224;7.484;2022-10-16T00:57:01;11.10;99.90
29777;DHT22;16677;52.224;7.484;2022-10-16T00:59:32;11.10;99.90
29777;DHT22;16677;52.224;7.484;2022-10-16T01:02:05;11.00;99.90
29777;DHT22;16677;52.224;7.484;2022-10-16T01:04:39;11.00;99.90
29777;DHT22;16677;52.224;7.484;2022-10-16T01:10:06;11.00;99.90
29777;DHT22;16677;52.224;7.484;2022-10-16T01:12:50;10.90;99.90
29777;DHT22;16677;52.224;7.484;2022-10-16T01:15:34;10.90;99.90
29777;DHT22;16677;52.224;7.484;2022-10-16T01:18:19;10.90;99.90
29777;DHT22;16677;52.224;7.484;2022-10-16T01:20:58;10.90;99.90
29777;DHT22;16677;52.224;7.484;2022-10-16T01:28:57;10.80;99.90
29777;DHT22;16677;52.224;7.484;2022-10-16T01:31:31;10.70;99.90
29777;DHT22;16677;52.224;7.484;2022-10-16T01:34:03;10.70;99.90
29777;DHT22;16677;52.224;7.484;2022-10-16T01:36:49;10.70;99.90
29777;DHT22;16677;52.224;7.484;2022-10-16T01:39:21;10.70;99.90
29777;DHT22;16677;52.224;7.484;2022-10-16T01:44:53;10.70;99.90
29777;DHT22;16677;52.224;7.484;2022-10-16T01:47:23;10.70;99.90
29777;DHT22;16677;52.224;7.484;2022-10-16T01:49:53;10.60;99.90
29777;DHT22;16677;52.224;7.484;2022-10-16T01:52:23;10.60;99.90
29777;DHT22;16677;52.224;7.484;2022-10-16T01:54:54;10.60;99.90
29777;DHT22;16677;52.224;7.484;2022-10-16T01:57:24;10.70;99.90
29777;DHT22;16677;52.224;7.484;2022-10-16T01:59:56;10.60;99.90
29777;DHT22;16677;52.224;7.484;2022-10-16T02:02:26;10.70;99.90
29777;DHT22;16677;52.224;7.484;2022-10-16T02:05:01;10.70;99.90
29777;DHT22;16677;52.224;7.484;2022-10-16T02:07:29;10.60;99.90
29777;DHT22;16677;52.224;7.484;2022-10-16T02:09:56;10.80;99.90
29777;DHT22;16677;52.224;7.484;2022-10-16T02:12:30;10.90;99.90
29777;DHT22;16677;52.224;7.484;2022-10-16T02:14:58;10.90;99.90
29777;DHT22;16677;52.224;7.484;2022-10-16T02:17:25;10.90;99.90
29777;DHT22;16677;52.224;7.484;2022-10-16T02:19:54;10.80;99.90
29777;DHT22;16677;52.224;7.484;2022-10-16T02:22:29;11.10;99.90
29777;DHT22;16677;52.224;7.484;2022-10-16T02:27:38;11.20;99.90
29777;DHT22;16677;52.224;7.484;2022-10-16T02:30:13;11.30;99.90
29777;DHT22;16677;52.224;7.484;2022-10-16T02:32:45;11.30;99.90
29777;DHT22;16677;52.224;7.484;2022-10-16T02:35:18;11.30;99.90
29777;DHT22;16677;52.224;7.484;2022-10-16T02:37:46;11.40;99.90
29777;DHT22;16677;52.224;7.484;2022-10-16T02:40:15;11.40;99.90
29777;DHT22;16677;52.224;7.484;2022-10-16T02:42:52;11.60;99.90
29777;DHT22;16677;52.224;7.484;2022-10-16T02:45:20;11.50;99.90
29777;DHT22;16677;52.224;7.484;2022-10-16T02:47:48;11.50;99.90
29777;DHT22;16677;52.224;7.484;2022-10-16T02:50:16;11.60;99.90
29777;DHT22;16677;52.224;7.484;2022-10-16T02:52:43;11.60;99.90
29777;DHT22;16677;52.224;7.484;2022-10-16T02:55:10;11.60;99.90
29777;DHT22;16677;52.224;7.484;2022-10-16T02:57:37;11.70;99.90
29777;DHT22;16677;52.224;7.484;2022-10-16T03:00:06;11.80;99.90
29777;DHT22;16677;52.224;7.484;2022-10-16T03:02:33;11.70;99.90
29777;DHT22;16677;52.224;7.484;2022-10-16T03:05:00;11.70;99.90
29777;DHT22;16677;52.224;7.484;2022-10-16T03:07:27;11.80;99.90
29777;DHT22;16677;52.224;7.484;2022-10-16T03:09:54;11.80;99.90
29777;DHT22;16677;52.224;7.484;2022-10-16T03:12:22;11.80;99.90
29777;DHT22;16677;52.224;7.484;2022-10-16T03:14:49;11.80;99.90
29777;DHT22;16677;52.224;7.484;2022-10-16T03:17:16;11.80;99.90
29777;DHT22;16677;52.224;7.484;2022-10-16T03:19:43;11.80;99.90
29777;DHT22;16677;52.224;7.484;2022-10-16T03:22:10;11.90;99.90
29777;DHT22;16677;52.224;7.484;2022-10-16T03:24:37;11.90;99.90
29777;DHT22;16677;52.224;7.484;2022-10-16T03:27:04;11.90;99.90
29777;DHT22;16677;52.224;7.484;2022-10-16T03:29:32;12.00;99.90
29777;DHT22;16677;52.224;7.484;2022-10-16T03:31:59;11.90;99.90
29777;DHT22;16677;52.224;7.484;2022-10-16T03:34:27;11.90;99.90
29777;DHT22;16677;52.224;7.484;2022-10-16T03:36:54;11.90;99.90
29777;DHT22;16677;52.224;7.484;2022-10-16T03:39:21;11.90;99.90
29777;DHT22;16677;52.224;7.484;2022-10-16T03:41:48;11.80;99.90
29777;DHT22;16677;52.224;7.484;2022-10-16T03:44:15;11.90;99.90
29777;DHT22;16677;52.224;7.484;2022-10-16T03:46:42;11.90;99.90
29777;DHT22;16677;52.224;7.484;2022-10-16T03:49:09;11.80;99.90
29777;DHT22;16677;52.224;7.484;2022-10-16T03:51:36;11.80;99.90
29777;DHT22;16677;52.224;7.484;2022-10-16T03:54:03;11.80;99.90
29777;DHT22;16677;52.224;7.484;2022-10-16T03:56:30;11.70;99.90
29777;DHT22;16677;52.224;7.484;2022-10-16T03:58:57;11.70;99.90
29777;DHT22;16677;52.224;7.484;2022-10-16T04:01:24;11.60;99.90
29777;DHT22;16677;52.224;7.484;2022-10-16T04:03:51;11.60;99.90
29777;DHT22;16677;52.224;7.484;2022-10-16T04:06:18;11.60;99.90
29777;DHT22;16677;52.224;7.484;2022-10-16T04:08:45;11.60;99.90
29777;DHT22;16677;52.224;7.484;2022-10-16T04:11:12;11.60;99.90
29777;DHT22;16677;52.224;7.484;2022-10-16T04:13:39;11.60;99.90
29777;DHT22;16677;52.224;7.484;2022-10-16T04:16:07;11.70;99.90
29777;DHT22;16677;52.224;7.484;2022-10-16T04:18:34;11.80;99.90
29777;DHT22;16677;52.224;7.484;2022-10-16T04:21:05;11.70;99.90
29777;DHT22;16677;52.224;7.484;2022-10-16T04:23:33;11.60;99.90
29777;DHT22;16677;52.224;7.484;2022-10-16T04:26:00;11.60;99.90
29777;DHT22;16677;52.224;7.484;2022-10-16T04:28:28;11.50;99.90
29777;DHT22;16677;52.224;7.484;2022-10-16T04:30:55;11.60;99.90
29777;DHT22;16677;52.224;7.484;2022-10-16T04:33:24;11.50;99.90
29777;DHT22;16677;52.224;7.484;2022-10-16T04:35:58;11.50;99.90
29777;DHT22;16677;52.224;7.484;2022-10-16T04:38:25;11.60;99.90
29777;DHT22;16677;52.224;7.484;2022-10-16T04:40:53;11.60;99.90
29777;DHT22;16677;52.224;7.484;2022-10-16T04:43:23;11.60;99.90
29777;DHT22;16677;52.224;7.484;2022-10-16T04:45:51;11.50;99.90
29777;DHT22;16677;52.224;7.484;2022-10-16T04:48:18;11.50;99.90
29777;DHT22;16677;52.224;7.484;2022-10-16T04:50:46;11.50;99.90
29777;DHT22;16677;52.224;7.484;2022-10-16T04:53:20;11.50;99.90
29777;DHT22;16677;52.224;7.484;2022-10-16T04:55:47;11.50;99.90
29777;DHT22;16677;52.224;7.484;2022-10-16T04:58:14;11.40;99.90
29777;DHT22;16677;52.224;7.484;2022-10-16T05:00:41;11.50;99.90
29777;DHT22;16677;52.224;7.484;2022-10-16T05:03:08;11.40;99.90
29777;DHT22;16677;52.224;7.484;2022-10-16T05:05:36;11.40;99.90
29777;DHT22;16677;52.224;7.484;2022-10-16T05:08:03;11.40;99.90
29777;DHT22;16677;52.224;7.484;2022-10-16T05:10:30;11.30;99.90
29777;DHT22;16677;52.224;7.484;2022-10-16T05:12:58;11.30;99.90
29777;DHT22;16677;52.224;7.484;2022-10-16T05:15:25;11.20;99.90
29777;DHT22;16677;52.224;7.484;2022-10-16T05:17:54;11.20;99.90
29777;DHT22;16677;52.224;7.484;2022-10-16T05:20:22;11.10;99.90
29777;DHT22;16677;52.224;7.484;2022-10-16T05:22:49;11.20;99.90
29777;DHT22;16677;52.224;7.484;2022-10-16T05:25:16;11.20;99.90
29777;DHT22;16677;52.224;7.484;2022-10-16T05:27:46;11.20;99.90
29777;DHT22;16677;52.224;7.484;2022-10-16T05:30:14;11.10;99.90
29777;DHT22;16677;52.224;7.484;2022-10-16T05:32:45;11.10;99.90
29777;DHT22;16677;52.224;7.484;2022-10-16T05:35:13;11.20;99.90
29777;DHT22;16677;52.224;7.484;2022-10-16T05:37:40;11.10;99.90
29777;DHT22;16677;52.224;7.484;2022-10-16T05:40:09;11.00;99.90
29777;DHT22;16677;52.224;7.484;2022-10-16T05:42:36;11.10;99.90
29777;DHT22;16677;52.224;7.484;2022-10-16T05:45:06;11.10;99.90
29777;DHT22;16677;52.224;7.484;2022-10-16T05:47:36;11.10;99.90
29777;DHT22;16677;52.224;7.484;2022-10-16T05:50:03;11.10;99.90
29777;DHT22;16677;52.224;7.484;2022-10-16T05:52:31;11.10;99.90
29777;DHT22;16677;52.224;7.484;2022-10-16T05:55:01;11.00;99.90
29777;DHT22;16677;52.224;7.484;2022-10-16T05:57:28;11.00;99.90
29777;DHT22;16677;52.224;7.484;2022-10-16T05:59:57;11.10;99.90
29777;DHT22;16677;52.224;7.484;2022-10-16T06:02:24;11.10;99.90
29777;DHT22;16677;52.224;7.484;2022-10-16T06:04:52;11.10;99.90
29777;DHT22;16677;52.224;7.484;2022-10-16T06:07:22;11.10;99.90
29777;DHT22;16677;52.224;7.484;2022-10-16T06:09:51;11.20;99.90
29777;DHT22;16677;52.224;7.484;2022-10-16T06:12:19;11.20;99.90
29777;DHT22;16677;52.224;7.484;2022-10-16T06:14:46;11.20;99.90
29777;DHT22;16677;52.224;7.484;2022-10-16T06:17:14;11.30;99.90
29777;DHT22;16677;52.224;7.484;2022-10-16T06:19:41;11.30;99.90
29777;DHT22;16677;52.224;7.484;2022-10-16T06:22:09;11.30;99.90
29777;DHT22;16677;52.224;7.484;2022-10-16T06:24:38;11.40;99.90
29777;DHT22;16677;52.224;7.484;2022-10-16T06:27:11;11.40;99.90
29777;DHT22;16677;52.224;7.484;2022-10-16T06:29:39;11.50;99.90
29777;DHT22;16677;52.224;7.484;2022-10-16T06:32:08;11.60;99.90
29777;DHT22;16677;52.224;7.484;2022-10-16T06:34:37;11.60;99.90
29777;DHT22;16677;52.224;7.484;2022-10-16T06:37:09;11.80;99.90
29777;DHT22;16677;52.224;7.484;2022-10-16T06:39:37;11.70;99.90
29777;DHT22;16677;52.224;7.484;2022-10-16T06:42:07;11.80;99.90
29777;DHT22;16677;52.224;7.484;2022-10-16T06:44:34;11.90;99.90
29777;DHT22;16677;52.224;7.484;2022-10-16T06:47:01;12.00;99.90
29777;DHT22;16677;52.224;7.484;2022-10-16T06:49:28;12.00;99.90
29777;DHT22;16677;52.224;7.484;2022-10-16T06:51:55;12.00;99.90
29777;DHT22;16677;52.224;7.484;2022-10-16T06:54:23;12.10;99.90
29777;DHT22;16677;52.224;7.484;2022-10-16T06:56:53;12.20;99.90
29777;DHT22;16677;52.224;7.484;2022-10-16T06:59:21;12.30;99.90
29777;DHT22;16677;52.224;7.484;2022-10-16T07:01:48;12.40;99.90
29777;DHT22;16677;52.224;7.484;2022-10-16T07:04:18;12.40;99.90
29777;DHT22;16677;52.224;7.484;2022-10-16T07:06:48;12.50;99.90
29777;DHT22;16677;52.224;7.484;2022-10-16T07:09:15;12.40;99.90
29777;DHT22;16677;52.224;7.484;2022-10-16T07:11:41;12.50;99.90
29777;DHT22;16677;52.224;7.484;2022-10-16T07:14:17;12.50;99.90
29777;DHT22;16677;52.224;7.484;2022-10-16T07:16:44;12.70;99.90
29777;DHT22;16677;52.224;7.484;2022-10-16T07:19:12;12.60;99.90
29777;DHT22;16677;52.224;7.484;2022-10-16T07:21:41;12.70;99.90
29777;DHT22;16677;52.224;7.484;2022-10-16T07:24:13;12.80;99.90
29777;DHT22;16677;52.224;7.484;2022-10-16T07:26:44;13.00;99.90
29777;DHT22;16677;52.224;7.484;2022-10-16T07:29:16;13.30;99.90
29777;DHT22;16677;52.224;7.484;2022-10-16T07:31:44;13.50;99.90
29777;DHT22;16677;52.224;7.484;2022-10-16T07:34:14;13.50;99.90
29777;DHT22;16677;52.224;7.484;2022-10-16T07:36:42;13.70;99.90
29777;DHT22;16677;52.224;7.484;2022-10-16T07:39:09;13.90;99.90
29777;DHT22;16677;52.224;7.484;2022-10-16T07:41:36;14.00;99.90
29777;DHT22;16677;52.224;7.484;2022-10-16T07:44:04;14.30;99.90
29777;DHT22;16677;52.224;7.484;2022-10-16T07:46:31;14.40;99.90
29777;DHT22;16677;52.224;7.484;2022-10-16T07:49:00;14.50;99.90
29777;DHT22;16677;52.224;7.484;2022-10-16T07:51:27;14.60;99.90
29777;DHT22;16677;52.224;7.484;2022-10-16T07:53:54;14.90;99.90
29777;DHT22;16677;52.224;7.484;2022-10-16T07:56:22;14.90;99.90
29777;DHT22;16677;52.224;7.484;2022-10-16T07:58:50;14.90;99.90
29777;DHT22;16677;52.224;7.484;2022-10-16T08:01:18;15.00;99.90
29777;DHT22;16677;52.224;7.484;2022-10-16T08:03:48;15.00;99.90
29777;DHT22;16677;52.224;7.484;2022-10-16T08:06:16;15.20;99.90
29777;DHT22;16677;52.224;7.484;2022-10-16T08:08:49;15.30;99.90
29777;DHT22;16677;52.224;7.484;2022-10-16T08:11:16;15.40;99.90
29777;DHT22;16677;52.224;7.484;2022-10-16T08:13:46;15.40;99.90
29777;DHT22;16677;52.224;7.484;2022-10-16T08:16:14;15.20;99.90
29777;DHT22;16677;52.224;7.484;2022-10-16T08:18:41;15.40;99.90
29777;DHT22;16677;52.224;7.484;2022-10-16T08:21:13;15.50;99.90
29777;DHT22;16677;52.224;7.484;2022-10-16T08:23:47;15.30;99.90
29777;DHT22;16677;52.224;7.484;2022-10-16T08:26:22;15.50;98.10
29777;DHT22;16677;52.224;7.484;2022-10-16T08:28:50;15.60;99.90
29777;DHT22;16677;52.224;7.484;2022-10-16T08:31:18;15.70;68.30
29777;DHT22;16677;52.224;7.484;2022-10-16T08:33:45;15.70;67.90
29777;DHT22;16677;52.224;7.484;2022-10-16T08:36:15;15.80;65.70
29777;DHT22;16677;52.224;7.484;2022-10-16T08:38:42;15.60;76.60
29777;DHT22;16677;52.224;7.484;2022-10-16T08:49:33;15.80;73.90
29777;DHT22;16677;52.224;7.484;2022-10-16T08:52:00;15.90;42.20
29777;DHT22;16677;52.224;7.484;2022-10-16T08:54:34;15.80;65.30
29777;DHT22;16677;52.224;7.484;2022-10-16T08:57:22;15.80;62.10
29777;DHT22;16677;52.224;7.484;2022-10-16T08:59:53;15.90;25.60
29777;DHT22;16677;52.224;7.484;2022-10-16T09:03:22;16.00;24.50
29777;DHT22;16677;52.224;7.484;2022-10-16T09:14:38;15.80;6.60
29777;DHT22;16677;52.224;7.484;2022-10-16T09:22:39;16.40;1.00
29777;DHT22;16677;52.224;7.484;2022-10-16T09:25:16;16.30;12.70
29777;DHT22;16677;52.224;7.484;2022-10-16T09:27:46;16.30;1.00
29777;DHT22;16677;52.224;7.484;2022-10-16T09:30:16;16.00;2.40
29777;DHT22;16677;52.224;7.484;2022-10-16T09:32:44;16.20;1.00
29777;DHT22;16677;52.224;7.484;2022-10-16T09:35:55;16.20;99.90
29777;DHT22;16677;52.224;7.484;2022-10-16T09:38:02;16.10;1.00
29777;DHT22;16677;52.224;7.484;2022-10-16T09:43:02;16.10;1.00
29777;DHT22;16677;52.224;7.484;2022-10-16T09:45:30;16.30;99.90
29777;DHT22;16677;52.224;7.484;2022-10-16T09:47:57;16.30;99.90
29777;DHT22;16677;52.224;7.484;2022-10-16T09:50:39;16.50;99.90
29777;DHT22;16677;52.224;7.484;2022-10-16T09:53:08;16.50;99.90
29777;DHT22;16677;52.224;7.484;2022-10-16T09:55:47;16.60;99.90
29777;DHT22;16677;52.224;7.484;2022-10-16T09:58:14;16.70;99.90
29777;DHT22;16677;52.224;7.484;2022-10-16T10:00:41;16.80;99.90
29777;DHT22;16677;52.224;7.484;2022-10-16T10:03:10;16.80;99.90
29777;DHT22;16677;52.224;7.484;2022-10-16T10:05:37;16.80;51.20
29777;DHT22;16677;52.224;7.484;2022-10-16T10:08:06;16.80;1.00
29777;DHT22;16677;52.224;7.484;2022-10-16T10:10:37;16.70;5.10
29777;DHT22;16677;52.224;7.484;2022-10-16T10:13:16;16.90;12.30
29777;DHT22;16677;52.224;7.484;2022-10-16T10:15:43;16.90;25.20
29777;DHT22;16677;52.224;7.484;2022-10-16T10:18:18;17.20;1.00
29777;DHT22;16677;52.224;7.484;2022-10-16T10:20:46;17.00;1.00
29777;DHT22;16677;52.224;7.484;2022-10-16T10:23:24;17.10;1.00
29777;DHT22;16677;52.224;7.484;2022-10-16T10:31:21;17.20;1.00
29777;DHT22;16677;52.224;7.484;2022-10-16T10:33:56;17.30;1.00
29777;DHT22;16677;52.224;7.484;2022-10-16T10:36:34;17.00;1.00
29777;DHT22;16677;52.224;7.484;2022-10-16T10:39:06;17.00;1.00
29777;DHT22;16677;52.224;7.484;2022-10-16T10:46:51;17.30;1.00
29777;DHT22;16677;52.224;7.484;2022-10-16T10:49:34;17.20;1.00
29777;DHT22;16677;52.224;7.484;2022-10-16T10:54:39;17.30;1.00
29777;DHT22;16677;52.224;7.484;2022-10-16T11:00:16;17.40;1.00
29777;DHT22;16677;52.224;7.484;2022-10-16T11:05:16;17.70;1.00
29777;DHT22;16677;52.224;7.484;2022-10-16T11:07:49;17.70;1.00
29777;DHT22;16677;52.224;7.484;2022-10-16T11:10:20;17.50;1.00
29777;DHT22;16677;52.224;7.484;2022-10-16T11:12:49;17.30;1.00
29777;DHT22;16677;52.224;7.484;2022-10-16T11:15:30;17.30;1.00
29777;DHT22;16677;52.224;7.484;2022-10-16T11:18:06;17.60;1.00
29777;DHT22;16677;52.224;7.484;2022-10-16T11:20:39;17.70;1.00
29777;DHT22;16677;52.224;7.484;2022-10-16T11:25:46;17.60;1.00
29777;DHT22;16677;52.224;7.484;2022-10-16T11:28:19;17.80;1.00
29777;DHT22;16677;52.224;7.484;2022-10-16T11:33:39;17.80;1.00
29777;DHT22;16677;52.224;7.484;2022-10-16T11:36:19;18.00;1.00
29777;DHT22;16677;52.224;7.484;2022-10-16T11:39:07;17.90;1.00
29777;DHT22;16677;52.224;7.484;2022-10-16T11:41:50;17.70;1.00
29777;DHT22;16677;52.224;7.484;2022-10-16T11:44:36;17.80;1.00
29777;DHT22;16677;52.224;7.484;2022-10-16T11:47:12;17.80;1.00
29777;DHT22;16677;52.224;7.484;2022-10-16T11:55:16;17.50;1.00
29777;DHT22;16677;52.224;7.484;2022-10-16T12:03:22;17.30;1.00
29777;DHT22;16677;52.224;7.484;2022-10-16T12:08:24;17.50;1.00
29777;DHT22;16677;52.224;7.484;2022-10-16T12:10:53;17.40;1.00
29777;DHT22;16677;52.224;7.484;2022-10-16T12:13:38;17.50;1.00
29777;DHT22;16677;52.224;7.484;2022-10-16T12:18:46;17.70;1.00
29777;DHT22;16677;52.224;7.484;2022-10-16T12:21:16;17.90;1.00
29777;DHT22;16677;52.224;7.484;2022-10-16T12:42:34;18.30;1.00
29777;DHT22;16677;52.224;7.484;2022-10-16T12:45:33;18.30;1.00
29777;DHT22;16677;52.224;7.484;2022-10-16T12:48:21;18.10;1.00
29777;DHT22;16677;52.224;7.484;2022-10-16T12:51:10;18.30;1.00
29777;DHT22;16677;52.224;7.484;2022-10-16T12:53:37;18.10;1.00
29777;DHT22;16677;52.224;7.484;2022-10-16T12:56:19;18.10;1.00
29777;DHT22;16677;52.224;7.484;2022-10-16T13:07:44;18.50;1.00
29777;DHT22;16677;52.224;7.484;2022-10-16T13:22:00;18.50;1.00
29777;DHT22;16677;52.224;7.484;2022-10-16T13:29:33;18.30;1.00
29777;DHT22;16677;52.224;7.484;2022-10-16T13:32:17;18.50;1.00
29777;DHT22;16677;52.224;7.484;2022-10-16T13:35:22;18.60;1.00
29777;DHT22;16677;52.224;7.484;2022-10-16T13:37:50;18.50;1.00
29777;DHT22;16677;52.224;7.484;2022-10-16T13:40:24;18.60;1.00
29777;DHT22;16677;52.224;7.484;2022-10-16T13:42:53;18.50;1.00
29777;DHT22;16677;52.224;7.484;2022-10-16T13:45:22;18.40;1.00
29777;DHT22;16677;52.224;7.484;2022-10-16T13:48:04;18.20;1.00
29777;DHT22;16677;52.224;7.484;2022-10-16T13:50:31;18.10;1.00
29777;DHT22;16677;52.224;7.484;2022-10-16T13:53:14;18.10;1.00
29777;DHT22;16677;52.224;7.484;2022-10-16T13:55:44;18.30;1.00
29777;DHT22;16677;52.224;7.484;2022-10-16T13:58:14;18.20;1.00
29777;DHT22;16677;52.224;7.484;2022-10-16T14:00:57;18.30;1.00
29777;DHT22;16677;52.224;7.484;2022-10-16T14:03:26;18.40;1.00
29777;DHT22;16677;52.224;7.484;2022-10-16T14:05:59;18.30;1.00
29777;DHT22;16677;52.224;7.484;2022-10-16T14:08:28;18.30;1.00
29777;DHT22;16677;52.224;7.484;2022-10-16T14:10:58;18.40;1.00
29777;DHT22;16677;52.224;7.484;2022-10-16T14:13:36;18.50;1.00
29777;DHT22;16677;52.224;7.484;2022-10-16T14:16:15;18.20;1.00
29777;DHT22;16677;52.224;7.484;2022-10-16T14:18:46;17.90;1.00
29777;DHT22;16677;52.224;7.484;2022-10-16T14:21:22;18.00;1.00
29777;DHT22;16677;52.224;7.484;2022-10-16T14:23:49;18.10;1.00
29777;DHT22;16677;52.224;7.484;2022-10-16T14:26:19;18.30;1.00
29777;DHT22;16677;52.224;7.484;2022-10-16T14:28:48;18.40;1.00
29777;DHT22;16677;52.224;7.484;2022-10-16T14:31:34;18.50;1.00
29777;DHT22;16677;52.224;7.484;2022-10-16T14:37:26;18.20;1.00
29777;DHT22;16677;52.224;7.484;2022-10-16T14:39:55;18.30;1.00
29777;DHT22;16677;52.224;7.484;2022-10-16T14:42:24;18.20;1.00
29777;DHT22;16677;52.224;7.484;2022-10-16T14:44:55;18.20;1.00
29777;DHT22;16677;52.224;7.484;2022-10-16T14:47:25;18.30;1.00
29777;DHT22;16677;52.224;7.484;2022-10-16T14:49:54;18.20;1.00
29777;DHT22;16677;52.224;7.484;2022-10-16T14:52:26;18.30;1.00
29777;DHT22;16677;52.224;7.484;2022-10-16T14:54:56;18.30;1.00
29777;DHT22;16677;52.224;7.484;2022-10-16T14:57:24;18.30;1.00
29777;DHT22;16677;52.224;7.484;2022-10-16T14:59:53;18.10;1.00
29777;DHT22;16677;52.224;7.484;2022-10-16T15:02:28;18.00;1.00
29777;DHT22;16677;52.224;7.484;2022-10-16T15:05:15;18.10;1.00
29777;DHT22;16677;52.224;7.484;2022-10-16T15:07:46;18.20;1.00
29777;DHT22;16677;52.224;7.484;2022-10-16T15:10:14;18.20;1.00
29777;DHT22;16677;52.224;7.484;2022-10-16T15:12:42;18.20;1.00
29777;DHT22;16677;52.224;7.484;2022-10-16T15:17:50;18.10;1.00
29777;DHT22;16677;52.224;7.484;2022-10-16T15:20:25;18.00;1.00
29777;DHT22;16677;52.224;7.484;2022-10-16T15:22:52;17.90;1.00
29777;DHT22;16677;52.224;7.484;2022-10-16T15:28:02;17.70;1.00
29777;DHT22;16677;52.224;7.484;2022-10-16T15:30:30;17.60;1.00
29777;DHT22;16677;52.224;7.484;2022-10-16T15:32:57;17.50;1.00
29777;DHT22;16677;52.224;7.484;2022-10-16T15:35:26;17.40;1.00
29777;DHT22;16677;52.224;7.484;2022-10-16T15:37:53;17.30;1.00
29777;DHT22;16677;52.224;7.484;2022-10-16T15:40:23;17.20;1.00
29777;DHT22;16677;52.224;7.484;2022-10-16T15:42:50;17.20;1.00
29777;DHT22;16677;52.224;7.484;2022-10-16T15:45:18;17.20;1.00
29777;DHT22;16677;52.224;7.484;2022-10-16T15:47:46;17.10;1.00
29777;DHT22;16677;52.224;7.484;2022-10-16T15:50:15;17.10;1.00
29777;DHT22;16677;52.224;7.484;2022-10-16T15:52:42;17.10;1.00
29777;DHT22;16677;52.224;7.484;2022-10-16T15:55:11;17.10;1.00
29777;DHT22;16677;52.224;7.484;2022-10-16T15:57:39;17.00;1.00
29777;DHT22;16677;52.224;7.484;2022-10-16T16:00:12;16.90;1.00
29777;DHT22;16677;52.224;7.484;2022-10-16T16:02:43;16.80;1.00
29777;DHT22;16677;52.224;7.484;2022-10-16T16:05:13;16.70;1.00
29777;DHT22;16677;52.224;7.484;2022-10-16T16:07:41;16.60;1.00
29777;DHT22;16677;52.224;7.484;2022-10-16T16:10:10;16.50;1.00
29777;DHT22;16677;52.224;7.484;2022-10-16T16:12:39;16.30;1.00
29777;DHT22;16677;52.224;7.484;2022-10-16T16:15:06;16.10;1.00
29777;DHT22;16677;52.224;7.484;2022-10-16T16:17:36;15.90;1.00
29777;DHT22;16677;52.224;7.484;2022-10-16T16:20:04;15.80;1.00
29777;DHT22;16677;52.224;7.484;2022-10-16T16:22:34;15.70;38.00
29777;DHT22;16677;52.224;7.484;2022-10-16T16:25:01;15.60;92.20
29777;DHT22;16677;52.224;7.484;2022-10-16T16:27:28;15.40;99.90
29777;DHT22;16677;52.224;7.484;2022-10-16T16:29:56;15.40;99.90
29777;DHT22;16677;52.224;7.484;2022-10-16T16:32:24;15.30;99.90
29777;DHT22;16677;52.224;7.484;2022-10-16T16:34:51;15.20;99.90
29777;DHT22;16677;52.224;7.484;2022-10-16T16:37:18;15.20;1.00
29777;DHT22;16677;52.224;7.484;2022-10-16T16:39:45;15.00;1.00
29777;DHT22;16677;52.224;7.484;2022-10-16T16:42:18;14.90;1.00
29777;DHT22;16677;52.224;7.484;2022-10-16T16:44:47;14.90;1.00
29777;DHT22;16677;52.224;7.484;2022-10-16T16:47:15;15.00;1.00
29777;DHT22;16677;52.224;7.484;2022-10-16T16:49:42;15.10;99.90
29777;DHT22;16677;52.224;7.484;2022-10-16T16:52:08;15.10;99.90
29777;DHT22;16677;52.224;7.484;2022-10-16T16:54:36;15.10;99.90
29777;DHT22;16677;52.224;7.484;2022-10-16T16:57:03;15.20;99.90
29777;DHT22;16677;52.224;7.484;2022-10-16T16:59:32;15.10;99.90
29777;DHT22;16677;52.224;7.484;2022-10-16T17:02:02;14.90;1.00
29777;DHT22;16677;52.224;7.484;2022-10-16T17:04:29;14.80;1.00
29777;DHT22;16677;52.224;7.484;2022-10-16T17:06:58;14.70;1.00
29777;DHT22;16677;52.224;7.484;2022-10-16T17:09:25;14.60;1.00
29777;DHT22;16677;52.224;7.484;2022-10-16T17:11:52;14.60;1.00
29777;DHT22;16677;52.224;7.484;2022-10-16T17:14:19;14.60;1.00
29777;DHT22;16677;52.224;7.484;2022-10-16T17:16:46;14.50;1.00
29777;DHT22;16677;52.224;7.484;2022-10-16T17:19:16;14.50;1.00
29777;DHT22;16677;52.224;7.484;2022-10-16T17:21:43;14.40;1.00
29777;DHT22;16677;52.224;7.484;2022-10-16T17:24:10;14.40;1.00
29777;DHT22;16677;52.224;7.484;2022-10-16T17:26:37;14.40;1.00
29777;DHT22;16677;52.224;7.484;2022-10-16T17:29:06;14.30;1.00
29777;DHT22;16677;52.224;7.484;2022-10-16T17:31:34;14.30;1.00
29777;DHT22;16677;52.224;7.484;2022-10-16T17:34:02;14.20;1.00
29777;DHT22;16677;52.224;7.484;2022-10-16T17:36:34;14.20;1.00
29777;DHT22;16677;52.224;7.484;2022-10-16T17:39:07;14.20;1.00
29777;DHT22;16677;52.224;7.484;2022-10-16T17:41:38;14.20;1.00
29777;DHT22;16677;52.224;7.484;2022-10-16T17:44:05;14.00;1.00
29777;DHT22;16677;52.224;7.484;2022-10-16T17:46:35;14.00;80.30
29777;DHT22;16677;52.224;7.484;2022-10-16T17:49:08;14.10;1.00
29777;DHT22;16677;52.224;7.484;2022-10-16T17:51:35;14.10;1.00
29777;DHT22;16677;52.224;7.484;2022-10-16T17:54:02;14.10;1.00
29777;DHT22;16677;52.224;7.484;2022-10-16T17:56:30;14.20;1.00
29777;DHT22;16677;52.224;7.484;2022-10-16T17:58:59;14.20;1.00
29777;DHT22;16677;52.224;7.484;2022-10-16T18:01:29;14.20;1.00
29777;DHT22;16677;52.224;7.484;2022-10-16T18:04:00;14.30;1.00
29777;DHT22;16677;52.224;7.484;2022-10-16T18:06:27;14.30;99.90
29777;DHT22;16677;52.224;7.484;2022-10-16T18:08:56;14.30;99.90
29777;DHT22;16677;52.224;7.484;2022-10-16T18:11:23;14.30;1.00
29777;DHT22;16677;52.224;7.484;2022-10-16T18:13:52;14.20;1.00